sensor_id;sensor_type;location;lat;lon;timestamp;P1;durP1;ratioP1;P2;durP2;ratioP2
5965;SDS011;3009;43.224;27.976;2023-07-31T00:01:36;7.17;;;6.70;;
5965;SDS011;3009;43.224;27.976;2023-07-31T00:04:04;6.90;;;6.43;;
5965;SDS011;3009;43.224;27.976;2023-07-31T00:06:33;6.50;;;6.20;;
5965;SDS011;3009;43.224;27.976;2023-07-31T00:09:01;6.07;;;5.77;;
5965;SDS011;3009;43.224;27.976;2023-07-31T00:11:30;7.00;;;6.50;;
5965;SDS011;3009;43.224;27.976;2023-07-31T00:14:00;6.90;;;6.33;;
5965;SDS011;3009;43.224;27.976;2023-07-31T00:16:28;6.83;;;6.43;;
5965;SDS011;3009;43.224;27.976;2023-07-31T00:18:57;6.67;;;6.27;;
5965;SDS011;3009;43.224;27.976;2023-07-31T00:21:25;7.10;;;6.50;;
5965;SDS011;3009;43.224;27.976;2023-07-31T00:23:53;6.37;;;5.87;;
5965;SDS011;3009;43.224;27.976;2023-07-31T00:26:22;6.37;;;6.00;;
5965;SDS011;3009;43.224;27.976;2023-07-31T00:28:50;6.90;;;6.40;;
5965;SDS011;3009;43.224;27.976;2023-07-31T00:31:20;6.80;;;6.30;;
5965;SDS011;3009;43.224;27.976;2023-07-31T00:33:49;6.47;;;6.00;;
5965;SDS011;3009;43.224;27.976;2023-07-31T00:36:17;6.70;;;6.10;;
5965;SDS011;3009;43.224;27.976;2023-07-31T00:38:45;6.97;;;6.57;;
5965;SDS011;3009;43.224;27.976;2023-07-31T00:41:14;6.53;;;6.10;;
5965;SDS011;3009;43.224;27.976;2023-07-31T00:43:42;6.60;;;5.87;;
5965;SDS011;3009;43.224;27.976;2023-07-31T00:46:11;6.13;;;5.73;;
5965;SDS011;3009;43.224;27.976;2023-07-31T00:48:41;5.80;;;5.50;;
5965;SDS011;3009;43.224;27.976;2023-07-31T00:51:10;6.40;;;5.90;;
5965;SDS011;3009;43.224;27.976;2023-07-31T00:53:39;6.60;;;6.13;;
5965;SDS011;3009;43.224;27.976;2023-07-31T00:56:10;6.50;;;6.10;;
5965;SDS011;3009;43.224;27.976;2023-07-31T00:58:39;6.03;;;5.73;;
5965;SDS011;3009;43.224;27.976;2023-07-31T01:01:07;6.37;;;6.03;;
5965;SDS011;3009;43.224;27.976;2023-07-31T01:03:36;6.30;;;5.90;;
5965;SDS011;3009;43.224;27.976;2023-07-31T01:06:09;6.67;;;6.17;;
5965;SDS011;3009;43.224;27.976;2023-07-31T01:08:44;7.30;;;6.60;;
5965;SDS011;3009;43.224;27.976;2023-07-31T01:11:28;6.80;;;6.20;;
5965;SDS011;3009;43.224;27.976;2023-07-31T01:13:58;6.30;;;5.90;;
5965;SDS011;3009;43.224;27.976;2023-07-31T01:16:27;9.70;;;6.47;;
5965;SDS011;3009;43.224;27.976;2023-07-31T01:18:55;6.30;;;5.90;;
5965;SDS011;3009;43.224;27.976;2023-07-31T01:21:37;6.73;;;6.33;;
5965;SDS011;3009;43.224;27.976;2023-07-31T01:24:21;7.33;;;6.77;;
5965;SDS011;3009;43.224;27.976;2023-07-31T01:26:55;7.30;;;6.47;;
5965;SDS011;3009;43.224;27.976;2023-07-31T01:29:31;6.57;;;6.17;;
5965;SDS011;3009;43.224;27.976;2023-07-31T01:32:05;6.57;;;6.07;;
5965;SDS011;3009;43.224;27.976;2023-07-31T01:34:35;6.33;;;5.93;;
5965;SDS011;3009;43.224;27.976;2023-07-31T01:37:05;10.40;;;6.33;;
5965;SDS011;3009;43.224;27.976;2023-07-31T01:39:33;6.80;;;6.10;;
5965;SDS011;3009;43.224;27.976;2023-07-31T01:42:03;6.07;;;5.67;;
5965;SDS011;3009;43.224;27.976;2023-07-31T01:44:32;6.30;;;6.00;;
5965;SDS011;3009;43.224;27.976;2023-07-31T01:47:00;7.03;;;6.40;;
5965;SDS011;3009;43.224;27.976;2023-07-31T01:49:29;5.60;;;5.30;;
5965;SDS011;3009;43.224;27.976;2023-07-31T01:51:57;8.23;;;5.90;;
5965;SDS011;3009;43.224;27.976;2023-07-31T01:54:27;6.60;;;6.10;;
5965;SDS011;3009;43.224;27.976;2023-07-31T01:56:55;6.93;;;6.33;;
5965;SDS011;3009;43.224;27.976;2023-07-31T01:59:25;6.40;;;6.00;;
5965;SDS011;3009;43.224;27.976;2023-07-31T02:01:53;6.20;;;5.80;;
5965;SDS011;3009;43.224;27.976;2023-07-31T02:04:22;6.47;;;6.03;;
5965;SDS011;3009;43.224;27.976;2023-07-31T02:06:50;6.63;;;6.13;;
5965;SDS011;3009;43.224;27.976;2023-07-31T02:09:19;6.53;;;6.13;;
5965;SDS011;3009;43.224;27.976;2023-07-31T02:11:47;6.60;;;6.23;;
5965;SDS011;3009;43.224;27.976;2023-07-31T02:14:16;6.50;;;6.10;;
5965;SDS011;3009;43.224;27.976;2023-07-31T02:16:45;6.73;;;6.13;;
5965;SDS011;3009;43.224;27.976;2023-07-31T02:19:14;6.87;;;6.20;;
5965;SDS011;3009;43.224;27.976;2023-07-31T02:21:42;7.20;;;6.70;;
5965;SDS011;3009;43.224;27.976;2023-07-31T02:24:11;6.33;;;5.63;;
5965;SDS011;3009;43.224;27.976;2023-07-31T02:26:39;7.03;;;6.37;;
5965;SDS011;3009;43.224;27.976;2023-07-31T02:29:08;6.30;;;5.90;;
5965;SDS011;3009;43.224;27.976;2023-07-31T02:31:37;7.03;;;6.33;;
5965;SDS011;3009;43.224;27.976;2023-07-31T02:34:08;6.57;;;6.13;;
5965;SDS011;3009;43.224;27.976;2023-07-31T02:36:36;7.37;;;6.30;;
5965;SDS011;3009;43.224;27.976;2023-07-31T02:39:05;8.13;;;6.10;;
5965;SDS011;3009;43.224;27.976;2023-07-31T02:41:33;7.43;;;6.70;;
5965;SDS011;3009;43.224;27.976;2023-07-31T02:44:02;7.00;;;6.43;;
5965;SDS011;3009;43.224;27.976;2023-07-31T02:46:31;6.80;;;6.40;;
5965;SDS011;3009;43.224;27.976;2023-07-31T02:49:00;12.13;;;6.30;;
5965;SDS011;3009;43.224;27.976;2023-07-31T02:51:30;6.03;;;5.63;;
5965;SDS011;3009;43.224;27.976;2023-07-31T02:53:58;6.73;;;5.90;;
5965;SDS011;3009;43.224;27.976;2023-07-31T02:56:26;13.03;;;6.50;;
5965;SDS011;3009;43.224;27.976;2023-07-31T02:58:55;6.30;;;5.80;;
5965;SDS011;3009;43.224;27.976;2023-07-31T03:01:23;6.60;;;6.20;;
5965;SDS011;3009;43.224;27.976;2023-07-31T03:03:52;8.90;;;5.90;;
5965;SDS011;3009;43.224;27.976;2023-07-31T03:06:20;6.20;;;5.90;;
5965;SDS011;3009;43.224;27.976;2023-07-31T03:08:50;7.23;;;6.23;;
5965;SDS011;3009;43.224;27.976;2023-07-31T03:11:18;7.23;;;6.57;;
5965;SDS011;3009;43.224;27.976;2023-07-31T03:13:47;6.40;;;6.00;;
5965;SDS011;3009;43.224;27.976;2023-07-31T03:16:15;6.10;;;5.80;;
5965;SDS011;3009;43.224;27.976;2023-07-31T03:18:44;6.30;;;5.80;;
5965;SDS011;3009;43.224;27.976;2023-07-31T03:21:12;5.17;;;4.87;;
5965;SDS011;3009;43.224;27.976;2023-07-31T03:23:42;5.93;;;5.27;;
5965;SDS011;3009;43.224;27.976;2023-07-31T03:26:12;5.20;;;5.00;;
5965;SDS011;3009;43.224;27.976;2023-07-31T03:28:41;7.33;;;5.27;;
5965;SDS011;3009;43.224;27.976;2023-07-31T03:31:09;5.00;;;4.70;;
5965;SDS011;3009;43.224;27.976;2023-07-31T03:33:38;7.60;;;5.00;;
5965;SDS011;3009;43.224;27.976;2023-07-31T03:36:06;5.77;;;5.47;;
5965;SDS011;3009;43.224;27.976;2023-07-31T03:38:35;5.23;;;4.93;;
5965;SDS011;3009;43.224;27.976;2023-07-31T03:41:03;5.20;;;4.80;;
5965;SDS011;3009;43.224;27.976;2023-07-31T03:43:34;5.47;;;5.07;;
5965;SDS011;3009;43.224;27.976;2023-07-31T03:46:02;6.23;;;5.70;;
5965;SDS011;3009;43.224;27.976;2023-07-31T03:48:31;4.90;;;4.53;;
5965;SDS011;3009;43.224;27.976;2023-07-31T03:50:59;4.97;;;4.57;;
5965;SDS011;3009;43.224;27.976;2023-07-31T03:53:28;5.63;;;4.93;;
5965;SDS011;3009;43.224;27.976;2023-07-31T03:55:56;4.97;;;4.57;;
5965;SDS011;3009;43.224;27.976;2023-07-31T03:58:25;5.00;;;4.60;;
5965;SDS011;3009;43.224;27.976;2023-07-31T04:00:55;5.20;;;5.00;;
5965;SDS011;3009;43.224;27.976;2023-07-31T04:03:23;4.60;;;4.30;;
5965;SDS011;3009;43.224;27.976;2023-07-31T04:05:53;5.03;;;4.67;;
5965;SDS011;3009;43.224;27.976;2023-07-31T04:08:22;4.77;;;4.57;;
5965;SDS011;3009;43.224;27.976;2023-07-31T04:10:51;4.77;;;4.40;;
5965;SDS011;3009;43.224;27.976;2023-07-31T04:13:21;4.80;;;4.50;;
5965;SDS011;3009;43.224;27.976;2023-07-31T04:15:50;5.50;;;4.77;;
5965;SDS011;3009;43.224;27.976;2023-07-31T04:18:20;4.50;;;4.30;;
5965;SDS011;3009;43.224;27.976;2023-07-31T04:20:48;8.10;;;4.47;;
5965;SDS011;3009;43.224;27.976;2023-07-31T04:23:17;4.80;;;4.60;;
5965;SDS011;3009;43.224;27.976;2023-07-31T04:25:45;4.90;;;4.50;;
5965;SDS011;3009;43.224;27.976;2023-07-31T04:28:13;6.13;;;4.30;;
5965;SDS011;3009;43.224;27.976;2023-07-31T04:30:42;5.07;;;4.77;;
5965;SDS011;3009;43.224;27.976;2023-07-31T04:33:12;4.83;;;4.40;;
5965;SDS011;3009;43.224;27.976;2023-07-31T04:35:41;5.10;;;4.80;;
5965;SDS011;3009;43.224;27.976;2023-07-31T04:38:18;4.63;;;4.23;;
5965;SDS011;3009;43.224;27.976;2023-07-31T04:40:48;9.00;;;5.00;;
5965;SDS011;3009;43.224;27.976;2023-07-31T04:43:16;5.77;;;5.37;;
5965;SDS011;3009;43.224;27.976;2023-07-31T04:45:45;8.70;;;5.30;;
5965;SDS011;3009;43.224;27.976;2023-07-31T04:48:14;5.60;;;5.20;;
5965;SDS011;3009;43.224;27.976;2023-07-31T04:50:44;5.77;;;5.43;;
5965;SDS011;3009;43.224;27.976;2023-07-31T04:53:13;7.03;;;6.27;;
5965;SDS011;3009;43.224;27.976;2023-07-31T04:55:41;8.10;;;5.80;;
5965;SDS011;3009;43.224;27.976;2023-07-31T04:58:09;10.20;;;5.77;;
5965;SDS011;3009;43.224;27.976;2023-07-31T05:00:38;6.90;;;5.47;;
5965;SDS011;3009;43.224;27.976;2023-07-31T05:03:07;10.83;;;5.80;;
5965;SDS011;3009;43.224;27.976;2023-07-31T05:05:37;21.13;;;5.63;;
5965;SDS011;3009;43.224;27.976;2023-07-31T05:08:07;5.80;;;5.30;;
5965;SDS011;3009;43.224;27.976;2023-07-31T05:10:35;7.23;;;5.10;;
5965;SDS011;3009;43.224;27.976;2023-07-31T05:13:04;4.80;;;4.45;;
5965;SDS011;3009;43.224;27.976;2023-07-31T05:15:33;4.45;;;4.15;;
5965;SDS011;3009;43.224;27.976;2023-07-31T05:18:01;4.70;;;4.30;;
5965;SDS011;3009;43.224;27.976;2023-07-31T05:20:29;5.20;;;4.68;;
5965;SDS011;3009;43.224;27.976;2023-07-31T05:22:58;5.00;;;3.85;;
5965;SDS011;3009;43.224;27.976;2023-07-31T05:25:28;5.05;;;4.43;;
5965;SDS011;3009;43.224;27.976;2023-07-31T05:27:56;4.93;;;4.63;;
5965;SDS011;3009;43.224;27.976;2023-07-31T05:30:25;7.70;;;4.47;;
5965;SDS011;3009;43.224;27.976;2023-07-31T05:32:53;5.90;;;4.30;;
5965;SDS011;3009;43.224;27.976;2023-07-31T05:35:22;5.18;;;4.65;;
5965;SDS011;3009;43.224;27.976;2023-07-31T05:37:50;5.40;;;5.10;;
5965;SDS011;3009;43.224;27.976;2023-07-31T05:40:19;6.13;;;4.82;;
5965;SDS011;3009;43.224;27.976;2023-07-31T05:42:48;5.13;;;4.80;;
5965;SDS011;3009;43.224;27.976;2023-07-31T05:45:17;8.57;;;5.20;;
5965;SDS011;3009;43.224;27.976;2023-07-31T05:47:45;5.50;;;4.82;;
5965;SDS011;3009;43.224;27.976;2023-07-31T05:50:14;10.95;;;5.47;;
5965;SDS011;3009;43.224;27.976;2023-07-31T05:52:43;6.03;;;5.50;;
5965;SDS011;3009;43.224;27.976;2023-07-31T05:55:11;6.35;;;5.75;;
5965;SDS011;3009;43.224;27.976;2023-07-31T05:57:39;8.27;;;6.60;;
5965;SDS011;3009;43.224;27.976;2023-07-31T06:00:10;13.40;;;6.77;;
5965;SDS011;3009;43.224;27.976;2023-07-31T06:02:39;8.00;;;7.37;;
5965;SDS011;3009;43.224;27.976;2023-07-31T06:05:08;7.50;;;6.83;;
5965;SDS011;3009;43.224;27.976;2023-07-31T06:07:36;6.57;;;6.27;;
5965;SDS011;3009;43.224;27.976;2023-07-31T06:10:05;6.70;;;6.20;;
5965;SDS011;3009;43.224;27.976;2023-07-31T06:12:34;8.13;;;6.83;;
5965;SDS011;3009;43.224;27.976;2023-07-31T06:15:04;7.10;;;6.70;;
5965;SDS011;3009;43.224;27.976;2023-07-31T06:17:34;6.83;;;6.37;;
5965;SDS011;3009;43.224;27.976;2023-07-31T06:20:03;7.20;;;6.50;;
5965;SDS011;3009;43.224;27.976;2023-07-31T06:22:32;10.77;;;6.20;;
5965;SDS011;3009;43.224;27.976;2023-07-31T06:25:00;5.70;;;5.50;;
5965;SDS011;3009;43.224;27.976;2023-07-31T06:27:29;11.63;;;7.07;;
5965;SDS011;3009;43.224;27.976;2023-07-31T06:29:57;6.27;;;5.77;;
5965;SDS011;3009;43.224;27.976;2023-07-31T06:32:26;6.00;;;5.70;;
5965;SDS011;3009;43.224;27.976;2023-07-31T06:34:56;7.28;;;6.10;;
5965;SDS011;3009;43.224;27.976;2023-07-31T06:37:24;6.10;;;5.70;;
5965;SDS011;3009;43.224;27.976;2023-07-31T06:39:53;9.37;;;6.10;;
5965;SDS011;3009;43.224;27.976;2023-07-31T06:42:21;7.13;;;6.50;;
5965;SDS011;3009;43.224;27.976;2023-07-31T06:44:50;7.30;;;6.70;;
5965;SDS011;3009;43.224;27.976;2023-07-31T06:47:18;6.37;;;5.87;;
5965;SDS011;3009;43.224;27.976;2023-07-31T06:49:46;6.57;;;6.27;;
5965;SDS011;3009;43.224;27.976;2023-07-31T06:52:16;6.67;;;6.37;;
5965;SDS011;3009;43.224;27.976;2023-07-31T06:54:50;7.43;;;7.03;;
5965;SDS011;3009;43.224;27.976;2023-07-31T06:57:29;6.73;;;6.23;;
5965;SDS011;3009;43.224;27.976;2023-07-31T06:59:58;6.90;;;6.50;;
5965;SDS011;3009;43.224;27.976;2023-07-31T07:02:26;6.67;;;6.37;;
5965;SDS011;3009;43.224;27.976;2023-07-31T07:04:55;7.10;;;6.70;;
5965;SDS011;3009;43.224;27.976;2023-07-31T07:07:25;7.00;;;6.60;;
5965;SDS011;3009;43.224;27.976;2023-07-31T07:09:54;7.57;;;7.17;;
5965;SDS011;3009;43.224;27.976;2023-07-31T07:12:22;7.43;;;7.00;;
5965;SDS011;3009;43.224;27.976;2023-07-31T07:14:50;7.60;;;7.17;;
5965;SDS011;3009;43.224;27.976;2023-07-31T07:17:19;7.20;;;6.73;;
5965;SDS011;3009;43.224;27.976;2023-07-31T07:19:49;8.03;;;7.37;;
5965;SDS011;3009;43.224;27.976;2023-07-31T07:22:17;6.80;;;6.40;;
5965;SDS011;3009;43.224;27.976;2023-07-31T07:24:47;6.80;;;6.30;;
5965;SDS011;3009;43.224;27.976;2023-07-31T07:27:16;7.97;;;6.23;;
5965;SDS011;3009;43.224;27.976;2023-07-31T07:29:46;6.90;;;6.50;;
5965;SDS011;3009;43.224;27.976;2023-07-31T07:32:15;7.57;;;7.17;;
5965;SDS011;3009;43.224;27.976;2023-07-31T07:34:44;7.03;;;6.73;;
5965;SDS011;3009;43.224;27.976;2023-07-31T07:37:12;7.87;;;7.30;;
5965;SDS011;3009;43.224;27.976;2023-07-31T07:39:43;7.50;;;7.00;;
5965;SDS011;3009;43.224;27.976;2023-07-31T07:42:14;6.93;;;6.40;;
5965;SDS011;3009;43.224;27.976;2023-07-31T07:44:42;16.90;;;8.23;;
5965;SDS011;3009;43.224;27.976;2023-07-31T07:47:11;7.70;;;7.20;;
5965;SDS011;3009;43.224;27.976;2023-07-31T07:49:41;10.00;;;8.37;;
5965;SDS011;3009;43.224;27.976;2023-07-31T07:52:17;11.67;;;9.00;;
5965;SDS011;3009;43.224;27.976;2023-07-31T07:54:46;11.70;;;9.77;;
5965;SDS011;3009;43.224;27.976;2023-07-31T07:57:16;10.73;;;8.80;;
5965;SDS011;3009;43.224;27.976;2023-07-31T07:59:45;9.83;;;9.13;;
5965;SDS011;3009;43.224;27.976;2023-07-31T08:02:13;10.63;;;8.23;;
5965;SDS011;3009;43.224;27.976;2023-07-31T08:04:42;9.07;;;8.33;;
5965;SDS011;3009;43.224;27.976;2023-07-31T08:07:10;9.47;;;8.73;;
5965;SDS011;3009;43.224;27.976;2023-07-31T08:09:39;10.60;;;8.67;;
5965;SDS011;3009;43.224;27.976;2023-07-31T08:12:08;10.53;;;9.50;;
5965;SDS011;3009;43.224;27.976;2023-07-31T08:14:38;10.23;;;9.50;;
5965;SDS011;3009;43.224;27.976;2023-07-31T08:17:06;10.87;;;9.43;;
5965;SDS011;3009;43.224;27.976;2023-07-31T08:19:35;9.93;;;9.13;;
5965;SDS011;3009;43.224;27.976;2023-07-31T08:22:04;10.37;;;9.47;;
5965;SDS011;3009;43.224;27.976;2023-07-31T08:24:32;9.07;;;8.37;;
5965;SDS011;3009;43.224;27.976;2023-07-31T08:27:01;8.97;;;8.37;;
5965;SDS011;3009;43.224;27.976;2023-07-31T08:29:29;8.50;;;8.00;;
5965;SDS011;3009;43.224;27.976;2023-07-31T08:31:59;8.17;;;7.50;;
5965;SDS011;3009;43.224;27.976;2023-07-31T08:34:28;12.90;;;7.70;;
5965;SDS011;3009;43.224;27.976;2023-07-31T08:36:56;7.30;;;6.90;;
5965;SDS011;3009;43.224;27.976;2023-07-31T08:39:25;8.03;;;7.53;;
5965;SDS011;3009;43.224;27.976;2023-07-31T08:41:57;12.27;;;7.00;;
5965;SDS011;3009;43.224;27.976;2023-07-31T08:44:26;7.40;;;6.70;;
5965;SDS011;3009;43.224;27.976;2023-07-31T08:46:55;8.17;;;7.40;;
5965;SDS011;3009;43.224;27.976;2023-07-31T08:49:25;8.20;;;7.50;;
5965;SDS011;3009;43.224;27.976;2023-07-31T08:51:54;7.70;;;7.20;;
5965;SDS011;3009;43.224;27.976;2023-07-31T08:54:24;7.37;;;6.87;;
5965;SDS011;3009;43.224;27.976;2023-07-31T08:56:57;7.30;;;6.90;;
5965;SDS011;3009;43.224;27.976;2023-07-31T08:59:27;8.03;;;7.30;;
5965;SDS011;3009;43.224;27.976;2023-07-31T09:01:59;10.53;;;7.20;;
5965;SDS011;3009;43.224;27.976;2023-07-31T09:04:34;7.10;;;6.60;;
5965;SDS011;3009;43.224;27.976;2023-07-31T09:07:03;7.40;;;6.90;;
5965;SDS011;3009;43.224;27.976;2023-07-31T09:09:33;8.87;;;7.40;;
5965;SDS011;3009;43.224;27.976;2023-07-31T09:12:02;7.90;;;7.30;;
5965;SDS011;3009;43.224;27.976;2023-07-31T09:14:31;7.23;;;6.83;;
5965;SDS011;3009;43.224;27.976;2023-07-31T09:17:01;10.43;;;6.40;;
5965;SDS011;3009;43.224;27.976;2023-07-31T09:19:32;6.83;;;6.33;;
5965;SDS011;3009;43.224;27.976;2023-07-31T09:22:04;7.87;;;7.47;;
5965;SDS011;3009;43.224;27.976;2023-07-31T09:24:34;7.27;;;6.70;;
5965;SDS011;3009;43.224;27.976;2023-07-31T09:27:02;7.87;;;7.10;;
5965;SDS011;3009;43.224;27.976;2023-07-31T09:29:31;8.40;;;7.60;;
5965;SDS011;3009;43.224;27.976;2023-07-31T09:32:00;7.20;;;6.73;;
5965;SDS011;3009;43.224;27.976;2023-07-31T09:34:28;7.83;;;7.33;;
5965;SDS011;3009;43.224;27.976;2023-07-31T09:37:01;7.83;;;7.17;;
5965;SDS011;3009;43.224;27.976;2023-07-31T09:39:30;7.43;;;6.83;;
5965;SDS011;3009;43.224;27.976;2023-07-31T09:41:58;7.27;;;6.87;;
5965;SDS011;3009;43.224;27.976;2023-07-31T09:47:20;7.73;;;7.10;;
5965;SDS011;3009;43.224;27.976;2023-07-31T09:49:52;7.70;;;7.20;;
5965;SDS011;3009;43.224;27.976;2023-07-31T09:52:22;8.00;;;7.40;;
5965;SDS011;3009;43.224;27.976;2023-07-31T09:54:54;8.03;;;7.43;;
5965;SDS011;3009;43.224;27.976;2023-07-31T09:57:23;8.13;;;7.10;;
5965;SDS011;3009;43.224;27.976;2023-07-31T09:59:52;8.00;;;7.30;;
5965;SDS011;3009;43.224;27.976;2023-07-31T10:02:22;7.50;;;7.10;;
5965;SDS011;3009;43.224;27.976;2023-07-31T10:04:51;7.50;;;7.03;;
5965;SDS011;3009;43.224;27.976;2023-07-31T10:07:25;8.00;;;7.20;;
5965;SDS011;3009;43.224;27.976;2023-07-31T10:09:58;6.87;;;6.57;;
5965;SDS011;3009;43.224;27.976;2023-07-31T10:12:30;8.07;;;7.47;;
5965;SDS011;3009;43.224;27.976;2023-07-31T10:15:01;7.30;;;6.87;;
5965;SDS011;3009;43.224;27.976;2023-07-31T10:17:30;9.17;;;7.90;;
5965;SDS011;3009;43.224;27.976;2023-07-31T10:20:01;8.40;;;7.03;;
5965;SDS011;3009;43.224;27.976;2023-07-31T10:22:32;7.80;;;7.30;;
5965;SDS011;3009;43.224;27.976;2023-07-31T10:25:01;9.17;;;8.47;;
5965;SDS011;3009;43.224;27.976;2023-07-31T10:27:30;9.27;;;8.50;;
5965;SDS011;3009;43.224;27.976;2023-07-31T10:29:59;9.33;;;8.53;;
5965;SDS011;3009;43.224;27.976;2023-07-31T10:32:32;8.13;;;7.50;;
5965;SDS011;3009;43.224;27.976;2023-07-31T10:35:11;7.67;;;7.07;;
5965;SDS011;3009;43.224;27.976;2023-07-31T10:37:42;8.70;;;8.10;;
5965;SDS011;3009;43.224;27.976;2023-07-31T10:40:11;7.67;;;7.17;;
5965;SDS011;3009;43.224;27.976;2023-07-31T10:42:45;8.10;;;7.57;;
5965;SDS011;3009;43.224;27.976;2023-07-31T10:45:24;7.60;;;6.90;;
5965;SDS011;3009;43.224;27.976;2023-07-31T10:47:57;6.97;;;6.60;;
5965;SDS011;3009;43.224;27.976;2023-07-31T10:50:28;7.07;;;6.57;;
5965;SDS011;3009;43.224;27.976;2023-07-31T10:53:01;7.80;;;7.30;;
5965;SDS011;3009;43.224;27.976;2023-07-31T10:55:31;10.03;;;6.57;;
5965;SDS011;3009;43.224;27.976;2023-07-31T10:58:07;7.90;;;7.33;;
5965;SDS011;3009;43.224;27.976;2023-07-31T11:00:37;7.67;;;7.10;;
5965;SDS011;3009;43.224;27.976;2023-07-31T11:03:08;7.03;;;6.63;;
5965;SDS011;3009;43.224;27.976;2023-07-31T11:05:42;7.17;;;6.77;;
5965;SDS011;3009;43.224;27.976;2023-07-31T11:08:23;8.13;;;7.53;;
5965;SDS011;3009;43.224;27.976;2023-07-31T11:11:04;7.47;;;6.97;;
5965;SDS011;3009;43.224;27.976;2023-07-31T11:13:34;8.03;;;7.43;;
5965;SDS011;3009;43.224;27.976;2023-07-31T11:16:08;7.70;;;7.30;;
5965;SDS011;3009;43.224;27.976;2023-07-31T11:18:38;8.40;;;7.70;;
5965;SDS011;3009;43.224;27.976;2023-07-31T11:21:08;7.40;;;6.90;;
5965;SDS011;3009;43.224;27.976;2023-07-31T11:23:38;9.13;;;6.50;;
5965;SDS011;3009;43.224;27.976;2023-07-31T11:26:06;7.33;;;6.90;;
5965;SDS011;3009;43.224;27.976;2023-07-31T11:28:35;6.73;;;6.40;;
5965;SDS011;3009;43.224;27.976;2023-07-31T11:31:08;6.33;;;5.97;;
5965;SDS011;3009;43.224;27.976;2023-07-31T11:33:38;8.53;;;6.63;;
5965;SDS011;3009;43.224;27.976;2023-07-31T11:36:10;9.00;;;6.20;;
5965;SDS011;3009;43.224;27.976;2023-07-31T11:38:44;6.60;;;6.20;;
5965;SDS011;3009;43.224;27.976;2023-07-31T11:41:13;6.33;;;5.83;;
5965;SDS011;3009;43.224;27.976;2023-07-31T11:43:42;6.50;;;6.20;;
5965;SDS011;3009;43.224;27.976;2023-07-31T11:46:11;6.70;;;6.30;;
5965;SDS011;3009;43.224;27.976;2023-07-31T11:48:42;7.13;;;6.57;;
5965;SDS011;3009;43.224;27.976;2023-07-31T11:51:10;6.97;;;6.57;;
5965;SDS011;3009;43.224;27.976;2023-07-31T11:53:44;16.37;;;6.57;;
5965;SDS011;3009;43.224;27.976;2023-07-31T11:56:18;7.10;;;6.70;;
5965;SDS011;3009;43.224;27.976;2023-07-31T11:58:48;7.73;;;7.20;;
5965;SDS011;3009;43.224;27.976;2023-07-31T12:01:26;8.50;;;7.80;;
5965;SDS011;3009;43.224;27.976;2023-07-31T12:03:55;7.60;;;7.10;;
5965;SDS011;3009;43.224;27.976;2023-07-31T12:06:32;7.30;;;6.80;;
5965;SDS011;3009;43.224;27.976;2023-07-31T12:09:04;8.20;;;7.50;;
5965;SDS011;3009;43.224;27.976;2023-07-31T12:11:42;7.97;;;7.13;;
5965;SDS011;3009;43.224;27.976;2023-07-31T12:14:19;6.90;;;6.50;;
5965;SDS011;3009;43.224;27.976;2023-07-31T12:16:47;7.67;;;6.97;;
5965;SDS011;3009;43.224;27.976;2023-07-31T12:19:20;8.10;;;7.57;;
5965;SDS011;3009;43.224;27.976;2023-07-31T12:21:49;7.77;;;7.33;;
5965;SDS011;3009;43.224;27.976;2023-07-31T12:24:19;8.00;;;7.60;;
5965;SDS011;3009;43.224;27.976;2023-07-31T12:26:48;7.70;;;7.20;;
5965;SDS011;3009;43.224;27.976;2023-07-31T12:29:18;8.97;;;8.07;;
5965;SDS011;3009;43.224;27.976;2023-07-31T12:31:46;11.10;;;10.10;;
5965;SDS011;3009;43.224;27.976;2023-07-31T12:34:15;10.67;;;9.33;;
5965;SDS011;3009;43.224;27.976;2023-07-31T12:36:45;8.60;;;7.90;;
5965;SDS011;3009;43.224;27.976;2023-07-31T12:39:15;8.70;;;8.10;;
5965;SDS011;3009;43.224;27.976;2023-07-31T12:41:44;9.10;;;8.30;;
5965;SDS011;3009;43.224;27.976;2023-07-31T12:44:13;13.53;;;9.40;;
5965;SDS011;3009;43.224;27.976;2023-07-31T12:46:41;8.93;;;8.03;;
5965;SDS011;3009;43.224;27.976;2023-07-31T12:49:10;8.57;;;7.87;;
5965;SDS011;3009;43.224;27.976;2023-07-31T12:51:38;8.97;;;8.37;;
5965;SDS011;3009;43.224;27.976;2023-07-31T12:54:07;7.93;;;7.33;;
5965;SDS011;3009;43.224;27.976;2023-07-31T12:56:35;8.17;;;7.60;;
5965;SDS011;3009;43.224;27.976;2023-07-31T12:59:06;7.83;;;7.40;;
5965;SDS011;3009;43.224;27.976;2023-07-31T13:01:34;7.77;;;7.27;;
5965;SDS011;3009;43.224;27.976;2023-07-31T13:04:03;7.17;;;6.77;;
5965;SDS011;3009;43.224;27.976;2023-07-31T13:06:31;7.37;;;6.97;;
5965;SDS011;3009;43.224;27.976;2023-07-31T13:09:00;7.90;;;7.30;;
5965;SDS011;3009;43.224;27.976;2023-07-31T13:11:28;7.70;;;7.10;;
5965;SDS011;3009;43.224;27.976;2023-07-31T13:13:57;8.80;;;7.23;;
5965;SDS011;3009;43.224;27.976;2023-07-31T13:16:27;6.87;;;6.47;;
5965;SDS011;3009;43.224;27.976;2023-07-31T13:18:55;7.40;;;6.80;;
5965;SDS011;3009;43.224;27.976;2023-07-31T13:21:24;7.27;;;6.87;;
5965;SDS011;3009;43.224;27.976;2023-07-31T13:23:52;8.97;;;7.03;;
5965;SDS011;3009;43.224;27.976;2023-07-31T13:26:21;7.73;;;7.27;;
5965;SDS011;3009;43.224;27.976;2023-07-31T13:28:50;7.00;;;6.60;;
5965;SDS011;3009;43.224;27.976;2023-07-31T13:31:18;7.47;;;7.07;;
5965;SDS011;3009;43.224;27.976;2023-07-31T13:33:48;7.80;;;7.20;;
5965;SDS011;3009;43.224;27.976;2023-07-31T13:36:16;6.90;;;6.30;;
5965;SDS011;3009;43.224;27.976;2023-07-31T13:38:45;7.57;;;6.87;;
5965;SDS011;3009;43.224;27.976;2023-07-31T13:41:14;16.40;;;7.47;;
5965;SDS011;3009;43.224;27.976;2023-07-31T13:43:42;7.47;;;6.53;;
5965;SDS011;3009;43.224;27.976;2023-07-31T13:46:11;16.27;;;7.20;;
5965;SDS011;3009;43.224;27.976;2023-07-31T13:48:39;8.20;;;7.33;;
5965;SDS011;3009;43.224;27.976;2023-07-31T13:51:09;7.87;;;7.13;;
5965;SDS011;3009;43.224;27.976;2023-07-31T13:53:37;10.93;;;8.13;;
5965;SDS011;3009;43.224;27.976;2023-07-31T13:56:06;8.23;;;7.70;;
5965;SDS011;3009;43.224;27.976;2023-07-31T13:58:34;7.27;;;6.77;;
5965;SDS011;3009;43.224;27.976;2023-07-31T14:01:03;13.33;;;7.23;;
5965;SDS011;3009;43.224;27.976;2023-07-31T14:03:31;7.37;;;6.70;;
5965;SDS011;3009;43.224;27.976;2023-07-31T14:06:00;7.63;;;7.13;;
5965;SDS011;3009;43.224;27.976;2023-07-31T14:08:30;7.30;;;6.90;;
5965;SDS011;3009;43.224;27.976;2023-07-31T14:10:59;9.13;;;7.80;;
5965;SDS011;3009;43.224;27.976;2023-07-31T14:13:27;12.80;;;7.97;;
5965;SDS011;3009;43.224;27.976;2023-07-31T14:15:56;7.47;;;6.97;;
5965;SDS011;3009;43.224;27.976;2023-07-31T14:18:25;27.63;;;8.60;;
5965;SDS011;3009;43.224;27.976;2023-07-31T14:20:55;8.20;;;7.70;;
5965;SDS011;3009;43.224;27.976;2023-07-31T14:23:24;14.73;;;8.63;;
5965;SDS011;3009;43.224;27.976;2023-07-31T14:25:54;16.30;;;8.00;;
5965;SDS011;3009;43.224;27.976;2023-07-31T14:28:22;18.50;;;7.83;;
5965;SDS011;3009;43.224;27.976;2023-07-31T14:30:51;11.03;;;7.70;;
5965;SDS011;3009;43.224;27.976;2023-07-31T14:33:19;8.07;;;7.37;;
5965;SDS011;3009;43.224;27.976;2023-07-31T14:35:48;8.30;;;7.70;;
5965;SDS011;3009;43.224;27.976;2023-07-31T14:38:17;8.00;;;7.30;;
5965;SDS011;3009;43.224;27.976;2023-07-31T14:40:47;14.60;;;8.50;;
5965;SDS011;3009;43.224;27.976;2023-07-31T14:43:17;7.77;;;7.17;;
5965;SDS011;3009;43.224;27.976;2023-07-31T14:45:47;7.90;;;6.73;;
5965;SDS011;3009;43.224;27.976;2023-07-31T14:48:16;7.80;;;7.30;;
5965;SDS011;3009;43.224;27.976;2023-07-31T14:50:45;7.47;;;6.93;;
5965;SDS011;3009;43.224;27.976;2023-07-31T14:53:14;7.83;;;7.20;;
5965;SDS011;3009;43.224;27.976;2023-07-31T14:55:42;8.70;;;7.40;;
5965;SDS011;3009;43.224;27.976;2023-07-31T14:58:11;7.97;;;7.20;;
5965;SDS011;3009;43.224;27.976;2023-07-31T15:00:42;8.30;;;7.50;;
5965;SDS011;3009;43.224;27.976;2023-07-31T15:03:11;8.50;;;7.70;;
5965;SDS011;3009;43.224;27.976;2023-07-31T15:05:39;7.43;;;6.83;;
5965;SDS011;3009;43.224;27.976;2023-07-31T15:08:07;11.50;;;7.50;;
5965;SDS011;3009;43.224;27.976;2023-07-31T15:10:36;7.93;;;7.30;;
5965;SDS011;3009;43.224;27.976;2023-07-31T15:13:04;8.20;;;7.60;;
5965;SDS011;3009;43.224;27.976;2023-07-31T15:15:33;10.47;;;7.30;;
5965;SDS011;3009;43.224;27.976;2023-07-31T15:18:03;7.60;;;6.90;;